createdAt,value
2018-03-22T00:00:39.130Z,-2.15
2018-03-22T00:03:07.642Z,-2.20
2018-03-22T00:05:36.016Z,-2.37
2018-03-22T00:08:04.410Z,-2.34
2018-03-22T00:10:32.757Z,-2.51
2018-03-22T00:13:01.110Z,-2.35
2018-03-22T00:15:29.542Z,-2.35
2018-03-22T00:17:57.919Z,-2.48
2018-03-22T00:20:26.294Z,-2.61
2018-03-22T00:22:54.621Z,-2.69
2018-03-22T00:25:23.015Z,-2.76
2018-03-22T00:27:51.431Z,-2.83
2018-03-22T00:30:19.810Z,-2.64
2018-03-22T00:32:48.153Z,-2.56
2018-03-22T00:35:16.495Z,-2.80
2018-03-22T00:37:44.830Z,-2.63
2018-03-22T00:40:13.182Z,-2.79
2018-03-22T00:42:41.531Z,-2.93
2018-03-22T00:45:09.882Z,-2.92
2018-03-22T00:47:38.246Z,-2.89
2018-03-22T00:50:06.636Z,-2.85
2018-03-22T00:52:34.982Z,-2.72
2018-03-22T00:55:03.348Z,-2.65
2018-03-22T00:57:31.696Z,-2.61
2018-03-22T01:00:00.039Z,-2.66
2018-03-22T01:02:28.436Z,-2.71
2018-03-22T01:04:56.803Z,-2.73
2018-03-22T01:07:25.179Z,-2.67
2018-03-22T01:09:53.658Z,-2.73
2018-03-22T01:12:22.031Z,-2.79
2018-03-22T01:14:50.370Z,-2.79
2018-03-22T01:17:18.790Z,-2.75
2018-03-22T01:19:47.170Z,-2.84
2018-03-22T01:22:15.520Z,-2.95
2018-03-22T01:24:43.920Z,-2.96
2018-03-22T01:27:12.282Z,-2.95
2018-03-22T01:29:40.682Z,-2.96
2018-03-22T01:32:09.066Z,-3.00
2018-03-22T01:34:37.398Z,-3.11
2018-03-22T01:37:05.814Z,-3.00
2018-03-22T01:39:34.147Z,-2.91
2018-03-22T01:42:02.501Z,-3.13
2018-03-22T01:44:30.843Z,-3.06
2018-03-22T01:46:59.228Z,-3.09
2018-03-22T01:49:27.568Z,-3.12
2018-03-22T01:51:56.010Z,-3.16
2018-03-22T01:54:24.335Z,-3.28
2018-03-22T01:56:52.747Z,-3.21
2018-03-22T01:59:21.073Z,-3.23
2018-03-22T02:01:49.561Z,-3.18
2018-03-22T02:04:17.870Z,-3.31
2018-03-22T02:06:46.198Z,-3.33
2018-03-22T02:09:14.626Z,-3.36
2018-03-22T02:11:42.970Z,-3.39
2018-03-22T02:14:11.390Z,-3.43
2018-03-22T02:16:39.772Z,-3.44
2018-03-22T02:19:08.144Z,-3.47
2018-03-22T02:21:36.475Z,-3.58
2018-03-22T02:24:04.836Z,-3.76
2018-03-22T02:26:33.171Z,-3.76
2018-03-22T02:29:01.551Z,-3.67
2018-03-22T02:31:29.907Z,-3.73
2018-03-22T02:33:58.265Z,-3.75
2018-03-22T02:36:26.588Z,-3.71
2018-03-22T02:38:54.970Z,-3.77
2018-03-22T02:41:23.317Z,-3.74
2018-03-22T02:43:51.788Z,-3.79
2018-03-22T02:46:20.123Z,-3.82
2018-03-22T02:48:48.587Z,-3.90
2018-03-22T02:51:16.968Z,-3.87
2018-03-22T02:53:45.442Z,-3.92
2018-03-22T02:56:13.820Z,-3.92
2018-03-22T02:58:42.179Z,-3.93
2018-03-22T03:01:10.580Z,-3.87
2018-03-22T03:03:38.926Z,-3.92
2018-03-22T03:06:07.351Z,-3.77
2018-03-22T03:08:35.678Z,-3.76
2018-03-22T03:11:04.022Z,-3.75
2018-03-22T03:13:32.343Z,-3.79
2018-03-22T03:16:00.743Z,-3.55
2018-03-22T03:18:29.127Z,-3.92
2018-03-22T03:20:57.489Z,-3.90
2018-03-22T03:23:25.818Z,-3.80
2018-03-22T03:25:54.220Z,-3.93
2018-03-22T03:28:22.566Z,-3.86
2018-03-22T03:30:51.015Z,-3.95
2018-03-22T03:33:19.406Z,-3.89
2018-03-22T03:35:47.870Z,-3.98
2018-03-22T03:38:16.256Z,-3.89
2018-03-22T03:40:44.611Z,-4.05
2018-03-22T03:43:12.950Z,-4.05
2018-03-22T03:45:41.298Z,-3.99
2018-03-22T03:48:09.635Z,-4.02
2018-03-22T03:50:37.993Z,-4.01
2018-03-22T03:53:06.383Z,-4.06
2018-03-22T03:55:34.803Z,-4.01
2018-03-22T03:58:03.182Z,-3.98
2018-03-22T04:00:31.667Z,-4.11
2018-03-22T04:03:00.006Z,-4.14
2018-03-22T04:05:28.430Z,-4.05
2018-03-22T04:07:56.796Z,-3.94
2018-03-22T04:10:25.134Z,-4.00
2018-03-22T04:12:53.527Z,-4.15
2018-03-22T04:15:21.861Z,-4.12
2018-03-22T04:17:51.242Z,-3.99
2018-03-22T04:20:19.572Z,-4.15
2018-03-22T04:22:47.957Z,-4.12
2018-03-22T04:25:16.292Z,-4.13
2018-03-22T04:27:44.651Z,-4.24
2018-03-22T04:30:12.983Z,-4.09
2018-03-22T04:32:41.338Z,-4.14
2018-03-22T04:35:10.694Z,-4.10
2018-03-22T04:37:39.063Z,-4.08
2018-03-22T04:40:07.378Z,-4.22
2018-03-22T04:42:35.738Z,-4.10
2018-03-22T04:45:04.082Z,-4.25
2018-03-22T04:47:32.444Z,-4.21
2018-03-22T04:50:00.762Z,-4.16
2018-03-22T04:52:29.132Z,-3.89
2018-03-22T04:54:57.476Z,-4.08
2018-03-22T04:57:25.855Z,-3.87
2018-03-22T04:59:54.180Z,-3.98
2018-03-22T05:02:22.512Z,-4.07
2018-03-22T05:04:50.877Z,-4.09
2018-03-22T05:07:19.306Z,-4.02
2018-03-22T05:09:47.671Z,-4.10
2018-03-22T05:12:16.063Z,-4.16
2018-03-22T05:14:44.417Z,-4.18
2018-03-22T05:17:12.823Z,-4.08
2018-03-22T05:19:41.188Z,-4.08
2018-03-22T05:22:09.525Z,-4.03
2018-03-22T05:24:38.771Z,-3.96
2018-03-22T05:27:07.094Z,-4.01
2018-03-22T05:29:35.534Z,-3.97
2018-03-22T05:32:03.910Z,-4.01
2018-03-22T05:34:32.319Z,-3.85
2018-03-22T05:37:00.660Z,-3.86
2018-03-22T05:39:29.013Z,-3.85
2018-03-22T05:41:57.343Z,-3.86
2018-03-22T05:44:25.699Z,-3.82
2018-03-22T05:46:54.031Z,-3.76
2018-03-22T05:49:22.458Z,-3.78
2018-03-22T05:51:50.818Z,-3.90
2018-03-22T05:54:19.169Z,-3.75
2018-03-22T05:56:47.598Z,-3.86
2018-03-22T05:59:16.790Z,-3.79
2018-03-22T06:01:45.152Z,-3.83
2018-03-22T06:04:13.647Z,-3.82
2018-03-22T06:06:42.028Z,-3.65
2018-03-22T06:09:10.408Z,-3.58
2018-03-22T06:11:38.782Z,-3.62
2018-03-22T06:14:07.158Z,-3.62
2018-03-22T06:16:35.575Z,-3.64
2018-03-22T06:19:03.898Z,-3.37
2018-03-22T06:21:32.296Z,-3.48
2018-03-22T06:24:00.625Z,-3.41
2018-03-22T06:26:28.983Z,-3.27
2018-03-22T06:28:57.303Z,-3.38
2018-03-22T06:31:25.665Z,-3.30
2018-03-22T06:33:54.083Z,-3.32
2018-03-22T06:36:22.446Z,-3.27
2018-03-22T06:38:50.842Z,-3.16
2018-03-22T06:41:19.214Z,-3.14
2018-03-22T06:43:47.602Z,-2.90
2018-03-22T06:46:15.978Z,-2.85
2018-03-22T06:48:44.340Z,-2.73
2018-03-22T06:51:12.686Z,-2.68
2018-03-22T06:53:41.113Z,-2.60
2018-03-22T06:56:09.485Z,-2.57
2018-03-22T06:58:37.808Z,-2.47
2018-03-22T07:01:06.155Z,-2.42
2018-03-22T07:03:34.537Z,-2.33
2018-03-22T07:06:02.876Z,-2.43
2018-03-22T07:08:31.227Z,-2.33
2018-03-22T07:10:59.666Z,-2.13
2018-03-22T07:13:28.049Z,-2.05
2018-03-22T07:15:56.374Z,-1.94
2018-03-22T07:18:24.735Z,-1.78
2018-03-22T07:20:53.076Z,-1.78
2018-03-22T07:23:21.473Z,-1.87
2018-03-22T07:25:49.785Z,-1.81
2018-03-22T07:28:18.152Z,-1.59
2018-03-22T07:30:46.690Z,-1.48
2018-03-22T07:33:15.068Z,-1.46
2018-03-22T07:35:43.395Z,-1.55
2018-03-22T07:38:11.758Z,-1.50
2018-03-22T07:40:40.088Z,-1.34
2018-03-22T07:43:14.066Z,-1.30
2018-03-22T07:45:42.378Z,-1.16
2018-03-22T07:48:10.734Z,-0.91
2018-03-22T07:50:39.144Z,-0.80
2018-03-22T07:53:07.504Z,-0.93
2018-03-22T07:55:35.847Z,-0.77
2018-03-22T07:58:04.604Z,-0.87
2018-03-22T08:00:32.931Z,-0.61
2018-03-22T08:03:01.271Z,-0.57
2018-03-22T08:05:29.721Z,-0.24
2018-03-22T08:07:58.064Z,-0.35
2018-03-22T08:10:26.399Z,-0.09
2018-03-22T08:12:54.730Z,0.09
2018-03-22T08:15:23.095Z,0.29
2018-03-22T08:17:51.414Z,0.34
2018-03-22T08:20:19.835Z,0.28
2018-03-22T08:22:48.174Z,0.05
2018-03-22T08:25:16.532Z,0.60
2018-03-22T08:27:44.857Z,0.36
2018-03-22T08:30:14.210Z,0.40
2018-03-22T08:32:42.602Z,0.23
2018-03-22T08:35:10.948Z,0.80
2018-03-22T08:37:39.280Z,0.90
2018-03-22T08:40:07.675Z,1.17
2018-03-22T08:42:35.965Z,1.26
2018-03-22T08:45:04.335Z,1.12
2018-03-22T08:47:32.664Z,1.24
2018-03-22T08:50:00.999Z,1.30
2018-03-22T08:52:29.415Z,1.17
2018-03-22T08:54:57.811Z,1.33
2018-03-22T08:57:26.130Z,1.27
2018-03-22T08:59:54.466Z,1.69
2018-03-22T09:02:22.843Z,1.23
2018-03-22T09:04:51.168Z,1.40
2018-03-22T09:07:19.502Z,1.51
2018-03-22T09:09:47.923Z,1.43
2018-03-22T09:12:16.252Z,1.90
2018-03-22T09:14:44.619Z,1.46
2018-03-22T09:17:12.988Z,1.26
2018-03-22T09:19:41.639Z,1.78
2018-03-22T09:22:10.075Z,1.43
2018-03-22T09:24:38.395Z,1.88
2018-03-22T09:27:06.731Z,1.22
2018-03-22T09:29:35.042Z,1.44
2018-03-22T09:32:03.475Z,1.54
2018-03-22T09:34:31.856Z,1.88
2018-03-22T09:37:00.211Z,1.77
2018-03-22T09:39:28.612Z,1.47
2018-03-22T09:41:56.950Z,1.98
2018-03-22T09:44:25.276Z,1.68
2018-03-22T09:46:53.652Z,1.95
2018-03-22T09:49:21.974Z,2.00
2018-03-22T09:51:50.400Z,2.04
2018-03-22T09:54:18.722Z,2.33
2018-03-22T09:56:47.084Z,2.45
2018-03-22T09:59:15.407Z,2.31
2018-03-22T10:01:43.771Z,2.84
2018-03-22T10:04:12.079Z,2.95
2018-03-22T10:06:40.486Z,2.62
2018-03-22T10:09:08.833Z,2.14
2018-03-22T10:11:37.149Z,2.12
2018-03-22T10:14:05.495Z,2.62
2018-03-22T10:16:33.880Z,2.61
2018-03-22T10:19:02.236Z,2.85
2018-03-22T10:21:30.639Z,2.68
2018-03-22T10:23:58.995Z,2.73
2018-03-22T10:26:27.300Z,2.77
2018-03-22T10:28:55.636Z,2.90
2018-03-22T10:31:24.933Z,3.30
2018-03-22T10:33:53.266Z,3.74
2018-03-22T10:36:21.584Z,3.20
2018-03-22T10:38:49.999Z,3.32
2018-03-22T10:41:18.319Z,3.55
2018-03-22T10:43:46.669Z,3.82
2018-03-22T10:46:14.987Z,3.75
2018-03-22T10:48:43.329Z,4.20
2018-03-22T10:51:11.783Z,3.89
2018-03-22T10:53:40.126Z,3.89
2018-03-22T10:56:08.459Z,3.23
2018-03-22T10:58:36.826Z,4.06
2018-03-22T11:01:10.771Z,4.27
2018-03-22T11:03:44.846Z,4.32
2018-03-22T11:06:13.222Z,5.24
2018-03-22T11:08:41.673Z,4.87
2018-03-22T11:11:10.012Z,5.22
2018-03-22T11:13:38.335Z,5.19
2018-03-22T11:16:06.755Z,4.32
2018-03-22T11:18:35.137Z,4.38
2018-03-22T11:21:03.499Z,4.30
2018-03-22T11:23:31.823Z,3.59
2018-03-22T11:26:00.353Z,4.15
2018-03-22T11:28:28.723Z,4.00
2018-03-22T11:30:57.083Z,3.83
2018-03-22T11:33:25.397Z,4.19
2018-03-22T11:35:53.734Z,4.79
2018-03-22T11:38:22.052Z,4.47
2018-03-22T11:40:50.422Z,5.56
2018-03-22T11:43:18.803Z,5.74
2018-03-22T11:45:47.141Z,5.18
2018-03-22T11:48:15.549Z,5.05
2018-03-22T11:50:43.896Z,6.19
2018-03-22T11:53:12.308Z,6.59
2018-03-22T11:55:40.674Z,6.23
2018-03-22T11:58:08.991Z,6.63
2018-03-22T12:00:37.362Z,6.61
2018-03-22T12:03:05.682Z,6.71
2018-03-22T12:05:34.098Z,5.94
2018-03-22T12:08:02.491Z,5.90
2018-03-22T12:10:30.810Z,5.36
2018-03-22T12:12:59.154Z,5.33
2018-03-22T12:15:27.514Z,6.14
2018-03-22T12:17:55.858Z,7.12
2018-03-22T12:20:24.178Z,6.20
2018-03-22T12:22:52.524Z,6.43
2018-03-22T12:25:20.916Z,6.93
2018-03-22T12:27:49.258Z,6.08
2018-03-22T12:30:17.607Z,6.44
2018-03-22T12:32:45.951Z,6.57
2018-03-22T12:35:14.432Z,6.51
2018-03-22T12:37:42.784Z,6.12
2018-03-22T12:40:11.097Z,6.00
2018-03-22T12:42:40.202Z,6.54
2018-03-22T12:45:08.524Z,6.58
2018-03-22T12:47:36.884Z,5.75
2018-03-22T12:50:05.195Z,5.91
2018-03-22T12:52:33.542Z,5.48
2018-03-22T12:55:01.846Z,4.83
2018-03-22T12:57:30.258Z,4.90
2018-03-22T12:59:58.571Z,5.73
2018-03-22T13:02:27.316Z,5.06
2018-03-22T13:04:55.686Z,4.81
2018-03-22T13:07:23.992Z,5.21
2018-03-22T13:09:52.430Z,4.93
2018-03-22T13:12:20.831Z,4.92
2018-03-22T13:14:49.205Z,5.51
2018-03-22T13:17:17.559Z,5.70
2018-03-22T13:19:45.963Z,5.78
2018-03-22T13:22:14.335Z,6.06
2018-03-22T13:24:42.702Z,6.54
2018-03-22T13:27:11.020Z,5.91
2018-03-22T13:29:39.364Z,7.55
2018-03-22T13:32:07.684Z,9.69
2018-03-22T13:34:36.166Z,10.53
2018-03-22T13:37:04.477Z,9.90
2018-03-22T13:39:32.845Z,10.16
2018-03-22T13:42:01.170Z,11.23
2018-03-22T13:44:29.526Z,11.48
2018-03-22T13:46:57.936Z,10.88
2018-03-22T13:49:26.294Z,11.27
2018-03-22T13:51:54.617Z,11.12
2018-03-22T13:54:23.963Z,11.08
2018-03-22T13:56:52.291Z,10.86
2018-03-22T13:59:20.664Z,9.88
2018-03-22T14:01:49.007Z,11.22
2018-03-22T14:04:17.429Z,10.38
2018-03-22T14:06:45.803Z,8.10
2018-03-22T14:09:14.106Z,8.19
2018-03-22T14:11:42.516Z,8.48
2018-03-22T14:14:10.824Z,7.46
2018-03-22T14:16:39.162Z,6.79
2018-03-22T14:19:07.514Z,6.52
2018-03-22T14:21:35.852Z,6.67
2018-03-22T14:24:04.172Z,6.70
2018-03-22T14:26:32.586Z,6.24
2018-03-22T14:29:00.969Z,6.65
2018-03-22T14:31:29.335Z,6.86
2018-03-22T14:33:57.663Z,5.83
2018-03-22T14:36:26.091Z,6.80
2018-03-22T14:38:54.467Z,6.54
2018-03-22T14:41:22.808Z,6.76
2018-03-22T14:43:51.127Z,7.03
2018-03-22T14:46:19.524Z,6.76
2018-03-22T14:48:47.832Z,6.83
2018-03-22T14:51:16.270Z,6.82
2018-03-22T14:53:44.596Z,6.28
2018-03-22T14:56:12.934Z,6.23
2018-03-22T14:58:41.308Z,5.65
2018-03-22T15:01:09.793Z,5.42
2018-03-22T15:03:38.111Z,5.40
2018-03-22T15:06:06.423Z,5.43
2018-03-22T15:08:34.819Z,5.63
2018-03-22T15:11:03.123Z,5.44
2018-03-22T15:13:31.463Z,5.16
2018-03-22T15:15:59.791Z,5.59
2018-03-22T15:18:28.122Z,5.56
2018-03-22T15:20:56.506Z,5.24
2018-03-22T15:23:24.867Z,5.03
2018-03-22T15:25:53.192Z,5.36
2018-03-22T15:28:21.553Z,4.92
2018-03-22T15:30:49.910Z,5.13
2018-03-22T15:33:18.256Z,5.09
2018-03-22T15:35:46.565Z,4.74
2018-03-22T15:38:14.903Z,4.79
2018-03-22T15:40:43.215Z,4.75
2018-03-22T15:43:11.555Z,4.79
2018-03-22T15:45:39.973Z,4.87
2018-03-22T15:48:08.354Z,4.61
2018-03-22T15:50:36.670Z,4.40
2018-03-22T15:53:05.006Z,4.42
2018-03-22T15:55:33.323Z,4.49
2018-03-22T15:58:01.758Z,4.50
2018-03-22T16:00:30.078Z,4.34
2018-03-22T16:02:58.410Z,4.11
2018-03-22T16:05:26.844Z,4.20
2018-03-22T16:07:55.174Z,4.33
2018-03-22T16:10:23.530Z,4.27
2018-03-22T16:12:51.926Z,4.18
2018-03-22T16:15:20.273Z,3.92
2018-03-22T16:17:48.691Z,3.88
2018-03-22T16:20:17.100Z,3.86
2018-03-22T16:22:45.401Z,3.95
2018-03-22T16:25:13.767Z,3.55
2018-03-22T16:27:42.091Z,2.93
2018-03-22T16:30:10.440Z,2.72
2018-03-22T16:32:38.763Z,2.97
2018-03-22T16:35:07.245Z,3.20
2018-03-22T16:37:35.586Z,2.76
2018-03-22T16:40:03.990Z,2.92
2018-03-22T16:42:32.371Z,2.75
2018-03-22T16:45:00.674Z,2.78
2018-03-22T16:47:29.012Z,2.77
2018-03-22T16:49:57.360Z,2.74
2018-03-22T16:52:25.686Z,2.54
2018-03-22T16:54:54.604Z,2.47
2018-03-22T16:57:22.955Z,2.13
2018-03-22T16:59:51.947Z,2.47
2018-03-22T17:02:20.272Z,2.30
2018-03-22T17:04:48.592Z,2.25
2018-03-22T17:07:16.947Z,1.91
2018-03-22T17:09:45.357Z,1.81
2018-03-22T17:12:13.703Z,1.54
2018-03-22T17:14:42.038Z,1.72
2018-03-22T17:17:10.385Z,1.91
2018-03-22T17:19:38.716Z,1.89
2018-03-22T17:22:07.063Z,1.43
2018-03-22T17:24:35.462Z,1.41
2018-03-22T17:27:03.791Z,1.13
2018-03-22T17:29:32.136Z,1.11
2018-03-22T17:32:00.558Z,0.90
2018-03-22T17:34:28.880Z,1.15
2018-03-22T17:36:57.312Z,1.34
2018-03-22T17:39:25.684Z,1.81
2018-03-22T17:41:54.086Z,1.41
2018-03-22T17:44:22.410Z,1.37
2018-03-22T17:46:50.833Z,1.32
2018-03-22T17:49:19.164Z,1.21
2018-03-22T17:51:47.527Z,1.48
2018-03-22T17:54:15.961Z,1.43
2018-03-22T17:56:44.320Z,1.35
2018-03-22T17:59:12.656Z,1.33
2018-03-22T18:01:41.024Z,1.05
2018-03-22T18:04:09.364Z,0.99
2018-03-22T18:06:37.679Z,1.06
2018-03-22T18:09:06.044Z,1.17
2018-03-22T18:11:34.383Z,1.50
2018-03-22T18:14:02.783Z,1.39
2018-03-22T18:16:31.146Z,1.07
2018-03-22T18:18:59.534Z,1.14
2018-03-22T18:21:27.932Z,1.03
2018-03-22T18:23:57.218Z,1.12
2018-03-22T18:26:25.532Z,0.85
2018-03-22T18:28:53.902Z,1.08
2018-03-22T18:31:22.252Z,1.01
2018-03-22T18:33:50.615Z,0.83
2018-03-22T18:36:18.967Z,0.96
2018-03-22T18:38:47.387Z,0.77
2018-03-22T18:41:15.767Z,0.93
2018-03-22T18:43:44.119Z,0.79
2018-03-22T18:46:12.459Z,0.89
2018-03-22T18:48:40.811Z,0.65
2018-03-22T18:51:09.166Z,0.64
2018-03-22T18:53:37.507Z,0.62
2018-03-22T18:56:05.838Z,0.77
2018-03-22T18:58:34.197Z,0.52
2018-03-22T19:01:02.592Z,0.68
2018-03-22T19:03:31.062Z,0.44
2018-03-22T19:05:59.411Z,0.29
2018-03-22T19:08:27.751Z,0.40
2018-03-22T19:10:56.111Z,0.46
2018-03-22T19:13:24.442Z,0.55
2018-03-22T19:15:52.799Z,0.46
2018-03-22T19:18:21.124Z,0.43
2018-03-22T19:20:49.515Z,0.51
2018-03-22T19:23:17.852Z,0.31
2018-03-22T19:25:46.263Z,0.30
2018-03-22T19:28:14.641Z,0.30
2018-03-22T19:30:42.984Z,0.46
2018-03-22T19:33:11.394Z,0.57
2018-03-22T19:35:39.739Z,0.44
2018-03-22T19:38:08.156Z,0.40
2018-03-22T19:40:36.497Z,0.25
2018-03-22T19:43:04.839Z,0.36
2018-03-22T19:45:33.173Z,0.47
2018-03-22T19:48:01.623Z,0.35
2018-03-22T19:50:29.972Z,0.31
2018-03-22T19:52:58.329Z,0.29
2018-03-22T19:55:26.686Z,0.37
2018-03-22T19:57:55.099Z,0.31
2018-03-22T20:00:23.448Z,0.37
2018-03-22T20:02:51.835Z,0.31
2018-03-22T20:05:20.157Z,0.63
2018-03-22T20:07:48.509Z,0.46
2018-03-22T20:10:16.876Z,0.42
2018-03-22T20:12:45.237Z,0.25
2018-03-22T20:15:13.566Z,0.18
2018-03-22T20:17:41.910Z,0.20
2018-03-22T20:20:10.282Z,0.37
2018-03-22T20:22:38.652Z,0.27
2018-03-22T20:25:07.000Z,0.43
2018-03-22T20:27:35.411Z,0.40
2018-03-22T20:30:03.738Z,0.37
2018-03-22T20:32:32.095Z,0.39
2018-03-22T20:35:00.481Z,0.46
2018-03-22T20:37:28.904Z,0.54
2018-03-22T20:39:57.311Z,0.61
2018-03-22T20:42:25.691Z,0.35
2018-03-22T20:44:54.002Z,0.47
2018-03-22T20:47:22.395Z,0.49
2018-03-22T20:49:50.815Z,0.38
2018-03-22T20:52:19.194Z,0.50
2018-03-22T20:54:47.587Z,0.58
2018-03-22T20:57:15.934Z,0.38
2018-03-22T20:59:44.274Z,0.52
2018-03-22T21:02:12.678Z,0.51
2018-03-22T21:04:41.016Z,0.37
2018-03-22T21:07:09.330Z,0.44
2018-03-22T21:09:37.696Z,0.48
2018-03-22T21:12:06.042Z,0.44
2018-03-22T21:14:34.403Z,0.48
2018-03-22T21:17:02.724Z,0.47
2018-03-22T21:19:31.087Z,0.79
2018-03-22T21:21:59.444Z,0.56
2018-03-22T21:24:27.807Z,0.62
2018-03-22T21:26:56.211Z,0.67
2018-03-22T21:29:24.571Z,0.38
2018-03-22T21:31:52.955Z,0.53
2018-03-22T21:34:21.328Z,0.43
2018-03-22T21:36:49.683Z,0.48
2018-03-22T21:39:18.034Z,0.31
2018-03-22T21:41:58.238Z,0.33
2018-03-22T21:44:26.657Z,0.35
2018-03-22T21:46:54.976Z,0.42
2018-03-22T21:49:23.332Z,0.38
2018-03-22T21:54:53.653Z,0.20
2018-03-22T21:57:21.981Z,0.29
2018-03-22T21:59:50.320Z,0.15
2018-03-22T22:02:18.748Z,0.18
2018-03-22T22:04:47.113Z,0.17
2018-03-22T22:07:15.450Z,0.08
2018-03-22T22:09:43.812Z,-0.03
2018-03-22T22:12:12.159Z,0.02
2018-03-22T22:14:40.521Z,0.40
2018-03-22T22:17:08.939Z,0.03
2018-03-22T22:19:37.619Z,0.11
2018-03-22T22:22:06.003Z,0.04
2018-03-22T22:24:34.321Z,0.14
2018-03-22T22:27:02.702Z,0.18
2018-03-22T22:29:31.027Z,0.07
2018-03-22T22:31:59.437Z,-0.01
2018-03-22T22:34:27.758Z,0.07
2018-03-22T22:36:56.146Z,0.14
2018-03-22T22:39:24.471Z,0.06
2018-03-22T22:41:52.902Z,0.15
2018-03-22T22:44:21.278Z,0.16
2018-03-22T22:46:49.640Z,0.15
2018-03-22T22:49:18.036Z,0.16
2018-03-22T22:51:46.415Z,0.24
2018-03-22T22:54:14.766Z,0.28
2018-03-22T22:56:43.166Z,0.20
2018-03-22T22:59:12.577Z,0.44
2018-03-22T23:01:41.035Z,0.39
2018-03-22T23:04:09.371Z,0.37
2018-03-22T23:06:37.811Z,0.31
2018-03-22T23:09:06.163Z,0.51
2018-03-22T23:11:34.523Z,0.38
2018-03-22T23:14:02.939Z,0.42
2018-03-22T23:16:31.287Z,0.40
2018-03-22T23:18:59.622Z,0.50
2018-03-22T23:21:28.184Z,0.56
2018-03-22T23:23:56.668Z,0.47
2018-03-22T23:26:25.035Z,0.59
2018-03-22T23:28:53.377Z,0.58
2018-03-22T23:31:21.723Z,0.59
2018-03-22T23:33:50.066Z,0.46
2018-03-22T23:36:18.400Z,0.45
2018-03-22T23:38:46.756Z,0.51
2018-03-22T23:41:15.084Z,0.58
2018-03-22T23:43:43.485Z,0.47
2018-03-22T23:46:11.872Z,0.50
2018-03-22T23:48:40.217Z,0.54
2018-03-22T23:51:08.542Z,0.58
2018-03-22T23:53:36.999Z,0.50
2018-03-22T23:56:05.354Z,0.52
2018-03-22T23:58:33.722Z,0.63
